Time;durP1;ratioP1;P1;durP2;ratioP2;P2;SDS_P1;SDS_P2;PMS_P1;PMS_P2;Temp;Humidity;BMP_temperature;BMP_pressure;BME280_temperature;BME280_humidity;BME280_pressure;Samples;Min_cycle;Max_cycle;Signal;HPM_P1;HPM_P2
2024/03/27 00:02:47;;;;;;;3.92;1.80;;;;;;;13.24;66.22;98946.28;5079390;28;20420;-79
2024/03/27 00:05:52;;;;;;;2.47;1.83;;;;;;;13.40;65.59;98955.00;5076756;28;20409;-79
2024/03/27 00:08:46;;;;;;;1.90;1.52;;;;;;;13.47;65.54;98960.53;5079173;28;20532;-78
2024/03/27 00:11:41;;;;;;;1.60;1.40;;;;;;;13.46;64.96;98969.88;5088931;28;20050;-78
2024/03/27 00:14:35;;;;;;;4.67;2.50;;;;;;;13.46;64.72;98974.56;5117893;28;20051;-78
2024/03/27 00:17:30;;;;;;;1.90;1.23;;;;;;;13.36;65.26;98976.00;5102260;28;20273;-80
2024/03/27 00:20:25;;;;;;;2.50;1.80;;;;;;;13.30;65.75;98972.09;5092655;28;20039;-78
2024/03/27 00:23:21;;;;;;;6.22;1.88;;;;;;;13.19;66.38;98960.28;5100063;28;20269;-80
2024/03/27 00:26:15;;;;;;;2.60;1.95;;;;;;;13.26;66.02;98955.66;5073809;28;20043;-80
2024/03/27 00:29:10;;;;;;;3.05;1.83;;;;;;;13.24;66.52;98949.00;5078846;28;20047;-80
2024/03/27 00:32:02;;;;;;;2.03;1.33;;;;;;;13.32;65.99;98938.94;5074907;28;20047;-80
2024/03/27 00:34:54;;;;;;;3.42;1.77;;;;;;;13.30;65.89;98938.53;5085692;28;20051;-79
2024/03/27 00:37:43;;;;;;;4.28;1.27;;;;;;;13.23;66.11;98928.31;5098502;28;20038;-80
2024/03/27 00:40:38;;;;;;;2.88;1.50;;;;;;;13.22;66.31;98929.47;5098571;28;20047;-80
2024/03/27 00:43:32;;;;;;;2.83;1.33;;;;;;;13.34;66.16;98923.75;5092416;28;20055;-79
2024/03/27 00:46:27;;;;;;;5.18;1.65;;;;;;;13.41;65.94;98923.03;5093690;28;20047;-80
2024/03/27 00:49:22;;;;;;;2.20;1.20;;;;;;;13.49;65.58;98916.47;5098740;28;20094;-80
2024/03/27 00:52:16;;;;;;;1.98;1.15;;;;;;;13.37;66.24;98905.81;5093095;28;20051;-78
2024/03/27 00:55:11;;;;;;;4.87;1.40;;;;;;;13.52;65.89;98912.97;5097068;28;20409;-78
2024/03/27 00:58:03;;;;;;;2.17;1.37;;;;;;;13.50;65.91;98909.84;5092077;28;20397;-78
2024/03/27 01:00:57;;;;;;;2.75;2.03;;;;;;;13.45;65.96;98915.66;5097990;28;20635;-80
2024/03/27 01:03:49;;;;;;;1.35;1.15;;;;;;;13.45;66.47;98918.38;5097994;28;20051;-80
2024/03/27 01:06:44;;;;;;;2.40;1.60;;;;;;;13.35;66.73;98919.88;5092578;28;20043;-80
2024/03/27 01:09:39;;;;;;;2.00;1.27;;;;;;;13.37;66.83;98911.28;5098421;28;20818;-79
2024/03/27 01:12:33;;;;;;;1.65;1.27;;;;;;;13.31;67.03;98912.81;5091845;28;20277;-80
2024/03/27 01:15:28;;;;;;;2.90;2.03;;;;;;;13.35;66.30;98913.63;5080041;28;20122;-80
2024/03/27 01:18:22;;;;;;;1.47;1.17;;;;;;;13.30;66.47;98905.78;5098625;28;20051;-80
2024/03/27 01:21:17;;;;;;;2.80;1.87;;;;;;;13.29;66.27;98899.53;5096936;28;20043;-80
2024/03/27 01:24:11;;;;;;;6.47;2.13;;;;;;;13.23;66.32;98901.03;5098291;28;20058;-80
2024/03/27 01:27:06;;;;;;;1.67;0.97;;;;;;;13.20;66.26;98902.59;5091362;28;20054;-80
2024/03/27 01:30:04;;;;;;;2.80;1.40;;;;;;;13.17;66.44;98892.41;5095114;28;20301;-79
2024/03/27 01:32:58;;;;;;;2.50;1.60;;;;;;;13.29;66.25;98880.44;5092621;28;20043;-79
2024/03/27 01:35:53;;;;;;;1.27;0.90;;;;;;;13.11;66.43;98876.72;5094972;28;20051;-80
2024/03/27 01:38:49;;;;;;;1.52;1.20;;;;;;;13.07;67.32;98867.72;5094281;28;20055;-79
2024/03/27 01:41:44;;;;;;;2.25;1.30;;;;;;;12.90;67.99;98863.66;5090863;28;20051;-80
2024/03/27 01:44:43;;;;;;;2.38;1.45;;;;;;;13.00;68.23;98867.66;5097751;28;20528;-80
2024/03/27 01:47:38;;;;;;;7.10;1.48;;;;;;;12.89;68.59;98864.06;5098940;28;20515;-80
2024/03/27 01:50:29;;;;;;;2.23;2.00;;;;;;;13.10;68.21;98853.34;5099737;28;20043;-80
2024/03/27 01:53:24;;;;;;;2.53;1.40;;;;;;;13.19;67.13;98842.91;5097774;28;20285;-79
2024/03/27 01:56:18;;;;;;;2.08;1.25;;;;;;;13.25;66.89;98834.00;5095141;28;20051;-79
2024/03/27 01:59:18;;;;;;;5.65;1.60;;;;;;;13.12;67.37;98838.16;5083622;28;20702;-80
2024/03/27 02:02:13;;;;;;;1.52;1.10;;;;;;;13.22;66.89;98850.31;5101570;28;20055;-80
2024/03/27 02:05:08;;;;;;;1.48;1.20;;;;;;;13.10;67.74;98858.78;5100148;28;20524;-80
2024/03/27 02:08:03;;;;;;;2.67;2.33;;;;;;;13.00;67.88;98854.81;5097079;28;20047;-79
2024/03/27 02:10:55;;;;;;;1.92;1.65;;;;;;;13.05;67.96;98846.28;5100867;28;20281;-78
2024/03/27 02:13:49;;;;;;;1.85;1.60;;;;;;;13.16;67.65;98851.84;5100961;28;20055;-78
2024/03/27 02:16:44;;;;;;;3.60;1.83;;;;;;;13.14;67.73;98859.63;5095293;28;20405;-78
2024/03/27 02:19:38;;;;;;;2.08;1.40;;;;;;;13.18;67.86;98872.16;5100260;28;20039;-79
2024/03/27 02:22:33;;;;;;;2.22;1.55;;;;;;;13.17;68.05;98869.78;5100710;28;20047;-78
2024/03/27 02:25:46;;;;;;;3.67;2.10;;;;;;;13.25;67.57;98863.25;5095049;28;20409;-78
2024/03/27 02:28:40;;;;;;;3.33;1.60;;;;;;;13.29;67.39;98861.31;5097470;28;20051;-79
2024/03/27 02:31:40;;;;;;;2.35;1.90;;;;;;;13.23;67.48;98832.78;5100489;28;20051;-79
2024/03/27 02:34:30;;;;;;;3.37;1.50;;;;;;;13.22;67.51;98806.66;5100982;28;20073;-80
2024/03/27 02:37:24;;;;;;;2.88;1.83;;;;;;;13.22;67.97;98784.81;5096656;28;20039;-79
2024/03/27 02:40:19;;;;;;;1.92;1.67;;;;;;;13.32;67.50;98777.88;5093626;28;20035;-79
2024/03/27 02:43:13;;;;;;;1.70;1.57;;;;;;;13.32;67.20;98775.91;5100873;28;20047;-79
2024/03/27 02:46:13;;;;;;;6.70;1.73;;;;;;;13.28;67.95;98772.41;5096428;28;20047;-79
2024/03/27 02:49:07;;;;;;;2.73;1.60;;;;;;;13.22;67.75;98752.06;5098715;28;20047;-79
2024/03/27 02:51:59;;;;;;;1.90;1.30;;;;;;;13.20;68.01;98743.50;5095493;28;20039;-79
2024/03/27 02:54:52;;;;;;;2.38;1.55;;;;;;;13.37;67.47;98742.81;5100122;28;20062;-80
2024/03/27 02:57:46;;;;;;;2.30;1.60;;;;;;;13.35;67.33;98739.69;5097107;28;20051;-80
2024/03/27 03:00:40;;;;;;;5.23;1.40;;;;;;;13.36;67.25;98732.28;5098709;28;20086;-80
2024/03/27 03:03:32;;;;;;;2.40;1.52;;;;;;;13.32;67.08;98715.88;5098965;28;20284;-79
2024/03/27 03:06:27;;;;;;;2.70;1.70;;;;;;;13.38;67.34;98700.69;5095872;28;20063;-79
2024/03/27 03:09:21;;;;;;;2.03;1.43;;;;;;;13.11;68.13;98680.22;5093468;28;20043;-79
2024/03/27 03:12:16;;;;;;;1.50;1.40;;;;;;;13.16;67.65;98682.63;5096917;28;20043;-79
2024/03/27 03:15:12;;;;;;;1.25;1.00;;;;;;;13.16;67.24;98694.34;5094701;28;20047;-78
2024/03/27 03:18:06;;;;;;;1.50;1.25;;;;;;;13.16;67.35;98707.19;5098237;28;20051;-79
2024/03/27 03:21:13;;;;;;;1.15;0.82;;;;;;;13.16;67.28;98715.38;5092906;28;20043;-79
2024/03/27 03:24:08;;;;;;;1.25;0.90;;;;;;;13.13;67.60;98716.94;5099963;28;20043;-79
2024/03/27 03:27:02;;;;;;;0.80;0.80;;;;;;;13.10;67.91;98714.16;5093420;28;20051;-79
2024/03/27 03:29:54;;;;;;;2.23;1.00;;;;;;;13.06;67.96;98716.06;5098911;28;20047;-79
2024/03/27 03:32:46;;;;;;;1.02;0.73;;;;;;;13.11;68.31;98729.34;5097276;28;20789;-79
2024/03/27 03:35:38;;;;;;;1.98;0.90;;;;;;;13.14;68.50;98725.91;5094795;28;20052;-79
2024/03/27 03:38:33;;;;;;;1.42;0.80;;;;;;;12.95;69.21;98724.22;5093199;28;20115;-79
2024/03/27 03:41:20;;;;;;;0.83;0.40;;;;;;;12.83;69.56;98716.31;5099002;28;20059;-79
2024/03/27 03:44:14;;;;;;;2.00;0.85;;;;;;;12.89;69.77;98727.66;5094327;28;20059;-79
2024/03/27 03:47:09;;;;;;;3.53;0.73;;;;;;;12.91;69.73;98715.19;5092093;28;20043;-79
2024/03/27 03:50:04;;;;;;;2.23;1.33;;;;;;;12.82;70.32;98717.47;5099210;28;20047;-79
2024/03/27 03:52:58;;;;;;;1.63;0.80;;;;;;;12.81;70.53;98722.16;5099063;28;20277;-79
2024/03/27 03:55:53;;;;;;;0.50;0.50;;;;;;;12.81;70.76;98713.16;5116285;28;20047;-79
2024/03/27 03:58:47;;;;;;;1.75;0.60;;;;;;;12.61;71.64;98712.63;5114550;28;20062;-79
2024/03/27 04:01:39;;;;;;;1.07;0.70;;;;;;;12.62;71.56;98719.66;5117914;28;20042;-79
2024/03/27 04:04:34;;;;;;;3.80;0.98;;;;;;;12.73;71.33;98703.38;5119697;28;20062;-79
2024/03/27 04:07:28;;;;;;;0.88;0.50;;;;;;;12.59;71.51;98700.56;5119227;28;20042;-78
2024/03/27 04:10:21;;;;;;;1.10;0.60;;;;;;;12.67;71.53;98686.59;5118558;28;20050;-78
2024/03/27 04:13:15;;;;;;;0.98;0.60;;;;;;;12.86;70.70;98686.31;5063790;28;20453;-79
2024/03/27 04:16:15;;;;;;;2.67;0.30;;;;;;;12.89;70.92;98681.28;5074488;28;20051;-78
2024/03/27 04:19:09;;;;;;;0.73;0.40;;;;;;;12.94;70.53;98675.47;5103136;28;20047;-78
2024/03/27 04:22:04;;;;;;;0.20;0.20;;;;;;;13.03;70.15;98673.97;5093987;28;20050;-80
2024/03/27 04:24:59;;;;;;;0.27;0.20;;;;;;;12.98;70.02;98671.59;5102050;28;20445;-78
2024/03/27 04:27:53;;;;;;;2.65;0.13;;;;;;;12.81;70.63;98683.97;5098742;28;20269;-78
2024/03/27 04:30:48;;;;;;;0.87;0.20;;;;;;;12.96;70.71;98684.03;5091954;28;20528;-79
2024/03/27 04:33:42;;;;;;;0.47;0.30;;;;;;;13.03;70.28;98684.09;5095449;28;20051;-78
2024/03/27 04:36:37;;;;;;;0.15;0.13;;;;;;;12.82;71.31;98682.81;5113355;28;20046;-79
2024/03/27 04:39:32;;;;;;;0.10;0.10;;;;;;;12.80;71.23;98676.94;5108107;28;20046;-79
2024/03/27 04:42:26;;;;;;;0.47;0.33;;;;;;;12.78;71.91;98679.28;5114073;28;20268;-79
2024/03/27 04:45:21;;;;;;;0.40;0.22;;;;;;;12.84;71.87;98683.22;5117184;28;20046;-78
2024/03/27 04:48:15;;;;;;;0.10;0.10;;;;;;;12.88;71.70;98671.53;5106375;28;20047;-78
2024/03/27 04:51:10;;;;;;;0.10;0.10;;;;;;;12.80;71.99;98666.03;5094918;28;20055;-78
2024/03/27 04:54:04;;;;;;;1.20;0.30;;;;;;;12.94;71.69;98640.00;5107114;28;20054;-78
2024/03/27 04:56:59;;;;;;;0.30;0.20;;;;;;;12.93;72.49;98641.16;5112191;28;20062;-77
2024/03/27 04:59:54;;;;;;;2.05;0.45;;;;;;;12.93;73.71;98641.94;5111114;28;20042;-78
2024/03/27 05:02:48;;;;;;;2.40;0.20;;;;;;;12.82;75.15;98632.91;5102748;28;20544;-79
2024/03/27 05:05:44;;;;;;;0.30;0.30;;;;;;;12.80;74.64;98637.97;5095712;28;20058;-80
2024/03/27 05:08:42;;;;;;;0.43;0.40;;;;;;;12.83;74.49;98638.00;5098624;28;20408;-79
2024/03/27 05:11:34;;;;;;;0.90;0.20;;;;;;;12.91;74.15;98635.31;5093987;28;20047;-80
2024/03/27 05:14:29;;;;;;;0.20;0.20;;;;;;;12.73;74.58;98649.63;5107385;28;20651;-79
2024/03/27 05:17:23;;;;;;;4.40;0.30;;;;;;;12.71;75.05;98651.94;5094542;28;20051;-80
2024/03/27 05:20:18;;;;;;;0.83;0.20;;;;;;;12.58;75.68;98642.50;5100185;28;20039;-80
2024/03/27 05:23:13;;;;;;;0.52;0.22;;;;;;;12.64;75.61;98649.19;5102005;28;20047;-79
2024/03/27 05:26:05;;;;;;;0.17;0.17;;;;;;;12.64;75.39;98645.66;5091372;28;20067;-77
2024/03/27 05:29:00;;;;;;;0.30;0.30;;;;;;;12.59;75.75;98635.91;5099799;28;20047;-77
2024/03/27 05:32:00;;;;;;;0.40;0.40;;;;;;;12.56;75.89;98628.47;5096415;28;20242;-79
2024/03/27 05:34:52;;;;;;;0.20;0.20;;;;;;;12.30;76.36;98631.38;5103976;28;20281;-78
2024/03/27 05:37:47;;;;;;;0.65;0.35;;;;;;;12.34;76.35;98626.75;5099851;28;20043;-77
2024/03/27 05:40:42;;;;;;;0.20;0.20;;;;;;;12.43;76.23;98619.03;5099982;28;20047;-78
2024/03/27 05:43:36;;;;;;;0.13;0.10;;;;;;;12.56;75.79;98622.22;5114130;28;20050;-78
2024/03/27 05:46:31;;;;;;;0.35;0.10;;;;;;;12.50;75.97;98629.97;5118369;28;20543;-79
2024/03/27 05:49:25;;;;;;;0.20;0.20;;;;;;;12.58;76.14;98620.69;5116870;28;20528;-78
2024/03/27 05:52:17;;;;;;;0.63;0.30;;;;;;;12.59;75.56;98600.47;5116403;28;20046;-78
2024/03/27 05:55:12;;;;;;;1.45;0.20;;;;;;;12.84;74.80;98609.56;5101951;28;20043;-80
2024/03/27 05:58:07;;;;;;;0.43;0.30;;;;;;;12.89;74.45;98613.09;5095099;28;20802;-79
2024/03/27 06:01:02;;;;;;;2.00;0.23;;;;;;;12.92;73.95;98615.03;5101345;28;20047;-79
2024/03/27 06:03:55;;;;;;;27.60;0.73;;;;;;;-144.51;100.00;69251.94;5101683;28;20405;-81
2024/03/27 06:06:47;;;;;;;0.45;0.32;;;;;;;-144.51;100.00;69251.94;5095642;28;20036;-80
2024/03/27 06:09:42;;;;;;;3.00;0.10;;;;;;;-144.51;100.00;69251.94;5098966;28;20040;-79
2024/03/27 06:12:34;;;;;;;0.45;0.10;;;;;;;-144.51;100.00;69251.94;5101417;28;20389;-82
2024/03/27 06:15:31;;;;;;;0.10;0.10;;;;;;;-144.51;100.00;69251.94;5098510;28;20036;-78
2024/03/27 06:18:26;;;;;;;0.25;0.25;;;;;;;-144.51;100.00;69251.94;5096121;28;20048;-79
2024/03/27 06:21:18;;;;;;;0.32;0.10;;;;;;;-144.51;100.00;69251.94;5100777;28;20040;-78
2024/03/27 06:24:13;;;;;;;0.95;0.25;;;;;;;-144.51;100.00;69251.94;5113027;28;20035;-79
2024/03/27 06:27:12;;;;;;;0.10;0.00;;;;;;;-144.51;100.00;69251.94;5075045;28;20040;-81
2024/03/27 06:30:07;;;;;;;15.77;2.70;;;;;;;-144.51;100.00;69251.94;5081404;28;20490;-79
2024/03/27 06:33:01;;;;;;;5.27;1.67;;;;;;;-144.51;100.00;69251.94;5081246;28;20509;-79
2024/03/27 06:35:56;;;;;;;3.50;0.57;;;;;;;-144.51;100.00;69251.94;5078069;28;20044;-80
2024/03/27 06:38:48;;;;;;;3.07;1.13;;;;;;;-144.51;100.00;69251.94;5076973;28;20036;-81
2024/03/27 06:41:40;;;;;;;1.90;1.08;;;;;;;-144.51;100.00;69251.94;5080237;28;20266;-79
2024/03/27 06:44:35;;;;;;;4.35;1.02;;;;;;;-144.51;100.00;69251.94;5080844;28;20041;-86
2024/03/27 06:47:29;;;;;;;2.30;0.40;;;;;;;-144.51;100.00;69251.94;5083603;28;20400;-80
2024/03/27 06:50:24;;;;;;;6.43;0.77;;;;;;;-144.51;100.00;69251.94;5099212;28;20421;-81
2024/03/27 06:53:16;;;;;;;2.42;0.82;;;;;;;-144.51;100.00;69251.94;5099543;28;20489;-80
2024/03/27 06:56:10;;;;;;;4.38;0.70;;;;;;;-144.51;100.00;69251.94;5094364;28;20493;-81
2024/03/27 06:59:03;;;;;;;1.90;0.37;;;;;;;-144.51;100.00;69251.94;5097316;28;20035;-81
2024/03/27 07:01:57;;;;;;;2.28;0.20;;;;;;;-144.51;100.00;69251.94;5098809;28;20028;-80
2024/03/27 07:04:52;;;;;;;0.43;0.20;;;;;;;-144.51;100.00;69251.94;5092601;28;20051;-80
2024/03/27 07:07:46;;;;;;;3.50;0.30;;;;;;;-144.51;100.00;69251.94;5100208;28;20409;-81
2024/03/27 07:10:41;;;;;;;0.50;0.15;;;;;;;-144.51;100.00;69251.94;5093955;28;20040;-80
2024/03/27 07:13:36;;;;;;;0.50;0.20;;;;;;;-144.51;100.00;69251.94;5117041;28;20043;-81
2024/03/27 07:16:30;;;;;;;2.60;0.30;;;;;;;-144.51;100.00;69251.94;5115577;28;20040;-82
2024/03/27 07:19:23;;;;;;;0.00;0.00;;;;;;;-144.51;100.00;69251.94;5108597;28;20048;-78
2024/03/27 07:22:13;;;;;;;1.85;0.20;;;;;;;-144.51;100.00;69251.94;5097336;28;20505;-81
2024/03/27 07:25:07;;;;;;;0.47;0.35;;;;;;;-144.51;100.00;69251.94;5097548;28;20035;-77
2024/03/27 07:28:03;;;;;;;0.30;0.20;;;;;;;-144.51;100.00;69251.94;5098617;28;20040;-79
2024/03/27 07:30:58;;;;;;;0.70;0.50;;;;;;;-144.51;100.00;69251.94;5092037;28;20028;-81
2024/03/27 07:33:49;;;;;;;0.80;0.35;;;;;;;-144.51;100.00;69251.94;5085880;28;20036;-79
2024/03/27 07:36:44;;;;;;;0.50;0.20;;;;;;;-144.51;100.00;69251.94;5089600;28;20040;-80
2024/03/27 07:39:38;;;;;;;0.45;0.20;;;;;;;-144.51;100.00;69251.94;5094056;28;20032;-79
2024/03/27 07:42:31;;;;;;;0.10;0.10;;;;;;;-144.51;100.00;69251.94;5101703;28;20036;-81
2024/03/27 07:45:25;;;;;;;2.08;0.40;;;;;;;-144.51;100.00;69251.94;5095554;28;20412;-79
2024/03/27 07:48:25;;;;;;;1.25;0.47;;;;;;;-144.51;100.00;69251.94;5083261;28;20032;-80
2024/03/27 07:51:19;;;;;;;4.35;0.50;;;;;;;-144.51;100.00;69251.94;5090810;28;20036;-80
2024/03/27 07:54:13;;;;;;;2.63;0.60;;;;;;;-144.51;100.00;69251.94;5104727;28;20036;-79
2024/03/27 07:57:10;;;;;;;2.35;0.35;;;;;;;-144.51;100.00;69251.94;5098726;28;20040;-80
2024/03/27 08:00:05;;;;;;;1.65;0.98;;;;;;;-144.51;100.00;69251.94;5095610;28;20036;-80
2024/03/27 08:02:59;;;;;;;4.40;1.25;;;;;;;-144.51;100.00;69251.94;5114557;28;20040;-80
2024/03/27 08:05:49;;;;;;;2.67;0.68;;;;;;;-144.51;100.00;69251.94;5080466;28;20031;-80
2024/03/27 08:08:41;;;;;;;2.63;0.90;;;;;;;-144.51;100.00;69251.94;5119254;28;20040;-80
2024/03/27 08:11:35;;;;;;;11.40;1.52;;;;;;;-144.51;100.00;69251.94;5100650;28;20409;-80
2024/03/27 08:14:27;;;;;;;3.20;1.15;;;;;;;-144.51;100.00;69251.94;5108242;28;20044;-81
2024/03/27 08:17:21;;;;;;;2.70;1.23;;;;;;;-144.51;100.00;69251.94;5097699;28;20040;-80
2024/03/27 08:20:16;;;;;;;3.75;1.02;;;;;;;-144.51;100.00;69251.94;5094610;28;20040;-80
2024/03/27 08:23:14;;;;;;;10.35;2.22;;;;;;;-144.51;100.00;69251.94;5089753;28;20040;-80
2024/03/27 08:26:08;;;;;;;2.80;1.10;;;;;;;-144.51;100.00;69251.94;5101574;28;20416;-80
2024/03/27 08:29:03;;;;;;;1.83;0.53;;;;;;;-144.51;100.00;69251.94;5096379;28;20040;-80
2024/03/27 08:31:54;;;;;;;8.67;1.13;;;;;;;-144.51;100.00;69251.94;5090781;28;20036;-80
2024/03/27 08:34:49;;;;;;;3.97;1.15;;;;;;;-144.51;100.00;69251.94;5095017;28;20045;-80
2024/03/27 08:37:44;;;;;;;2.25;0.80;;;;;;;-144.51;100.00;69251.94;5098625;28;20492;-81
2024/03/27 08:40:38;;;;;;;4.13;1.00;;;;;;;-144.51;100.00;69251.94;5097726;28;20032;-80
2024/03/27 08:43:33;;;;;;;1.73;0.60;;;;;;;-144.51;100.00;69251.94;5098132;28;20039;-80
2024/03/27 08:46:25;;;;;;;11.83;0.93;;;;;;;-144.51;100.00;69251.94;5093437;28;20663;-79
2024/03/27 08:49:19;;;;;;;6.30;1.33;;;;;;;-144.51;100.00;69251.94;5099173;28;20032;-81
2024/03/27 08:52:11;;;;;;;3.13;0.57;;;;;;;-144.51;100.00;69251.94;5073452;28;20040;-80
2024/03/27 08:55:06;;;;;;;5.70;0.57;;;;;;;-144.51;100.00;69251.94;5100658;28;20044;-80
2024/03/27 08:57:53;;;;;;;1.20;0.50;;;;;;;-144.51;100.00;69251.94;5095394;28;20032;-79
2024/03/27 09:00:42;;;;;;;2.47;0.60;;;;;;;-144.51;100.00;69251.94;5103907;28;20039;-79
2024/03/27 09:03:37;;;;;;;2.70;0.85;;;;;;;-144.51;100.00;69251.94;5103876;28;20036;-79
2024/03/27 09:06:31;;;;;;;1.75;0.73;;;;;;;-144.51;100.00;69251.94;5098237;28;20044;-79
2024/03/27 09:09:23;;;;;;;1.03;0.80;;;;;;;-144.51;100.00;69251.94;5097569;28;20587;-79
2024/03/27 09:12:15;;;;;;;1.38;0.70;;;;;;;-144.51;100.00;69251.94;5102928;28;20040;-80
2024/03/27 09:15:10;;;;;;;13.25;1.98;;;;;;;-144.51;100.00;69251.94;5078531;28;20036;-81
2024/03/27 09:18:05;;;;;;;5.63;0.98;;;;;;;-144.51;100.00;69251.94;5103953;28;20043;-81
2024/03/27 09:21:00;;;;;;;8.68;1.00;;;;;;;-144.51;100.00;69251.94;5119990;28;20035;-81
2024/03/27 09:23:55;;;;;;;1.42;0.50;;;;;;;-144.51;100.00;69251.94;5082586;28;20040;-83
2024/03/27 09:26:50;;;;;;;1.08;0.55;;;;;;;-144.51;100.00;69251.94;5096844;28;20497;-82
2024/03/27 09:33:36;;;;;;;8.60;0.95;;;;;;;-144.51;100.00;69251.94;4997478;28;20038;-82
2024/03/27 09:36:30;;;;;;;2.80;0.93;;;;;;;-144.51;100.00;69251.94;4999119;28;20038;-81
2024/03/27 09:39:25;;;;;;;8.82;0.90;;;;;;;-144.51;100.00;69251.94;5105259;28;20048;-83
2024/03/27 09:42:15;;;;;;;2.67;0.50;;;;;;;-144.51;100.00;69251.94;5111199;28;20027;-81
2024/03/27 09:45:11;;;;;;;4.45;0.55;;;;;;;-144.51;100.00;69251.94;5090150;28;20421;-81
2024/03/27 09:48:04;;;;;;;6.80;1.25;;;;;;;-144.51;100.00;69251.94;5098560;28;20040;-81
2024/03/27 09:51:00;;;;;;;0.73;0.50;;;;;;;-144.51;100.00;69251.94;5088059;28;20040;-79
2024/03/27 09:53:54;;;;;;;3.15;0.40;;;;;;;-144.51;100.00;69251.94;5106274;28;20501;-81
2024/03/27 09:56:49;;;;;;;1.83;0.30;;;;;;;-144.51;100.00;69251.94;5095700;28;20040;-80
2024/03/27 09:59:43;;;;;;;0.80;0.37;;;;;;;-144.51;100.00;69251.94;5089688;28;20045;-81
2024/03/27 10:02:38;;;;;;;4.77;0.63;;;;;;;-144.51;100.00;69251.94;5090578;28;20281;-81
2024/03/27 10:05:33;;;;;;;0.55;0.20;;;;;;;-144.51;100.00;69251.94;5098001;28;20270;-81
2024/03/27 10:08:26;;;;;;;1.27;0.30;;;;;;;-144.51;100.00;69251.94;5108836;28;20044;-81
2024/03/27 10:11:20;;;;;;;2.10;0.35;;;;;;;-144.51;100.00;69251.94;5100508;28;20035;-81
2024/03/27 10:14:15;;;;;;;0.77;0.20;;;;;;;-144.51;100.00;69251.94;5087726;28;20043;-81
2024/03/27 10:17:09;;;;;;;2.23;0.50;;;;;;;-144.51;100.00;69251.94;5095158;28;20274;-81
2024/03/27 10:20:04;;;;;;;0.47;0.43;;;;;;;-144.51;100.00;69251.94;5101295;28;20047;-81
2024/03/27 10:23:00;;;;;;;1.53;0.30;;;;;;;-144.51;100.00;69251.94;5110992;28;20651;-80
2024/03/27 10:25:55;;;;;;;5.05;0.73;;;;;;;-144.51;100.00;69251.94;5082943;28;20036;-81
2024/03/27 10:28:44;;;;;;;4.32;0.65;;;;;;;-144.51;100.00;69251.94;5101492;28;20036;-81
2024/03/27 10:31:39;;;;;;;2.50;0.70;;;;;;;-144.51;100.00;69251.94;5094441;28;20044;-81
2024/03/27 10:34:31;;;;;;;1.90;0.65;;;;;;;-144.51;100.00;69251.94;5091464;28;20501;-80
2024/03/27 10:37:27;;;;;;;2.25;0.40;;;;;;;-144.51;100.00;69251.94;5084499;28;20048;-81
2024/03/27 10:40:22;;;;;;;2.58;0.50;;;;;;;-144.51;100.00;69251.94;5098287;28;20036;-82
2024/03/27 10:43:40;;;;;;;1.30;0.55;;;;;;;-144.51;100.00;69251.94;5108475;28;20055;-81
2024/03/27 10:46:36;;;;;;;1.27;0.82;;;;;;;-144.51;100.00;69251.94;5084870;28;20512;-81
2024/03/27 10:49:31;;;;;;;1.52;0.50;;;;;;;-144.51;100.00;69251.94;5088058;28;20412;-81
2024/03/27 10:52:26;;;;;;;3.05;0.93;;;;;;;-144.51;100.00;69251.94;5091873;28;20048;-81
2024/03/27 10:55:21;;;;;;;1.88;0.70;;;;;;;-144.51;100.00;69251.94;5093190;28;20493;-81
2024/03/27 10:58:15;;;;;;;2.70;0.90;;;;;;;-144.51;100.00;69251.94;5098161;28;20040;-81
2024/03/27 11:01:11;;;;;;;2.10;0.70;;;;;;;-144.51;100.00;69251.94;5102053;28;20032;-81
2024/03/27 11:04:07;;;;;;;7.25;1.58;;;;;;;-144.51;100.00;69251.94;5097713;28;20036;-81
2024/03/27 11:07:03;;;;;;;5.43;0.98;;;;;;;-144.51;100.00;69251.94;5090328;28;20474;-81
2024/03/27 11:09:57;;;;;;;1.60;0.73;;;;;;;-144.51;100.00;69251.94;5088622;28;20036;-80
2024/03/27 11:12:52;;;;;;;3.90;1.02;;;;;;;-144.51;100.00;69251.94;5080006;28;20040;-81
2024/03/27 11:15:46;;;;;;;2.43;0.93;;;;;;;-144.51;100.00;69251.94;5096571;28;20497;-81
2024/03/27 11:18:45;;;;;;;3.75;1.05;;;;;;;-144.51;100.00;69251.94;5119096;28;20035;-81
2024/03/27 11:21:39;;;;;;;1.15;0.85;;;;;;;-144.51;100.00;69251.94;5099067;28;20032;-82
2024/03/27 11:24:31;;;;;;;5.40;1.27;;;;;;;-144.51;100.00;69251.94;5099299;28;20040;-78
2024/03/27 11:27:34;;;;;;;3.88;1.20;;;;;;;-144.51;100.00;69251.94;5082940;28;20036;-78
2024/03/27 11:30:29;;;;;;;2.88;1.60;;;;;;;-144.51;100.00;69251.94;5079500;28;20044;-81
2024/03/27 11:33:24;;;;;;;2.03;0.90;;;;;;;-144.51;100.00;69251.94;5096995;28;20036;-80
2024/03/27 11:36:25;;;;;;;1.88;1.08;;;;;;;-144.51;100.00;69251.94;5103162;28;20032;-80
2024/03/27 11:39:20;;;;;;;5.45;1.65;;;;;;;-144.51;100.00;69251.94;5098419;28;20036;-80
2024/03/27 11:42:12;;;;;;;3.15;1.75;;;;;;;-144.51;100.00;69251.94;5100213;28;20481;-80
2024/03/27 11:45:08;;;;;;;6.97;1.88;;;;;;;-144.51;100.00;69251.94;5111296;28;20035;-81
2024/03/27 11:48:02;;;;;;;4.63;2.25;;;;;;;-144.51;100.00;69251.94;5095497;28;20040;-80
2024/03/27 11:50:57;;;;;;;5.90;2.35;;;;;;;-144.51;100.00;69251.94;5110718;28;20044;-81
2024/03/27 11:53:49;;;;;;;2.47;1.45;;;;;;;-144.51;100.00;69251.94;5100135;28;20044;-79
2024/03/27 11:56:44;;;;;;;5.00;2.38;;;;;;;-144.51;100.00;69251.94;5094600;28;20032;-81
2024/03/27 11:59:36;;;;;;;6.55;3.35;;;;;;;-144.51;100.00;69251.94;5100058;28;20485;-80
2024/03/27 12:02:31;;;;;;;5.53;2.58;;;;;;;-144.51;100.00;69251.94;5100242;28;20032;-79
2024/03/27 12:05:27;;;;;;;5.50;2.38;;;;;;;-144.51;100.00;69251.94;5101296;28;20039;-79
2024/03/27 12:08:19;;;;;;;4.63;2.95;;;;;;;-144.51;100.00;69251.94;5103205;28;20031;-79
2024/03/27 12:11:09;;;;;;;9.52;3.42;;;;;;;-144.51;100.00;69251.94;5102468;28;20036;-80
2024/03/27 12:13:58;;;;;;;13.63;3.75;;;;;;;-144.51;100.00;69251.94;5100465;28;20044;-80
2024/03/27 12:16:53;;;;;;;13.95;4.32;;;;;;;-144.51;100.00;69251.94;5102282;28;20047;-79
2024/03/27 12:19:57;;;;;;;4.80;2.80;;;;;;;-144.51;100.00;69251.94;5107973;28;20032;-80
2024/03/27 12:22:50;;;;;;;8.82;4.57;;;;;;;-144.51;100.00;69251.94;5099796;28;20036;-79
2024/03/27 12:25:48;;;;;;;6.03;4.30;;;;;;;-144.51;100.00;69251.94;5097024;28;20036;-79
2024/03/27 12:28:44;;;;;;;6.97;4.90;;;;;;;-144.51;100.00;69251.94;5096078;28;20048;-80
2024/03/27 12:31:39;;;;;;;8.48;4.90;;;;;;;-144.51;100.00;69251.94;5100454;28;20036;-81
2024/03/27 12:34:33;;;;;;;11.30;6.17;;;;;;;-144.51;100.00;69251.94;5111210;28;20044;-78
2024/03/27 12:37:26;;;;;;;13.50;8.33;;;;;;;-144.51;100.00;69251.94;5102868;28;20413;-80
2024/03/27 12:40:18;;;;;;;16.35;10.15;;;;;;;-144.51;100.00;69251.94;5109100;28;20039;-81
2024/03/27 12:43:12;;;;;;;19.17;11.52;;;;;;;-144.51;100.00;69251.94;5102038;28;20032;-81
2024/03/27 12:46:06;;;;;;;13.67;8.83;;;;;;;-144.51;100.00;69251.94;5087568;28;20044;-81
2024/03/27 12:49:01;;;;;;;12.35;9.00;;;;;;;-144.51;100.00;69251.94;5099125;28;20040;-81
2024/03/27 12:51:56;;;;;;;18.95;10.48;;;;;;;-144.51;100.00;69251.94;5093399;28;20040;-80
2024/03/27 12:54:47;;;;;;;17.45;9.70;;;;;;;-144.51;100.00;69251.94;5100328;28;20040;-80
2024/03/27 12:57:41;;;;;;;18.80;10.43;;;;;;;-144.51;100.00;69251.94;5120008;28;20039;-81
2024/03/27 13:00:38;;;;;;;17.70;10.43;;;;;;;-144.51;100.00;69251.94;5109610;28;20032;-80
2024/03/27 13:03:30;;;;;;;14.87;8.40;;;;;;;-144.51;100.00;69251.94;5090247;28;20406;-81
2024/03/27 13:06:24;;;;;;;12.15;8.40;;;;;;;-144.51;100.00;69251.94;5074500;28;20041;-80
2024/03/27 13:09:19;;;;;;;10.47;7.13;;;;;;;-144.51;100.00;69251.94;5078787;28;20032;-80
2024/03/27 13:12:06;;;;;;;5.67;4.37;;;;;;;-144.51;100.00;69251.94;5078377;28;20787;-81
2024/03/27 13:15:01;;;;;;;4.93;3.47;;;;;;;-144.51;100.00;69251.94;5085609;28;20281;-83
2024/03/27 13:17:53;;;;;;;5.28;3.50;;;;;;;-144.51;100.00;69251.94;5104922;28;20048;-81
2024/03/27 13:20:48;;;;;;;5.45;2.88;;;;;;;-144.51;100.00;69251.94;5118454;28;20488;-81
2024/03/27 13:23:43;;;;;;;4.33;2.53;;;;;;;-144.51;100.00;69251.94;5106820;28;20040;-82
2024/03/27 13:26:37;;;;;;;5.17;2.70;;;;;;;-144.51;100.00;69251.94;5077547;28;20274;-81
2024/03/27 13:29:29;;;;;;;3.47;2.43;;;;;;;-144.51;100.00;69251.94;5098606;28;21066;-82